createdAt,value
2018-12-09T00:00:01.159Z,97901.23
2018-12-09T00:02:30.110Z,97905.89
2018-12-09T00:04:59.600Z,97892.17
2018-12-09T00:07:28.763Z,97884.31
2018-12-09T00:09:55.890Z,97872.19
2018-12-09T00:12:23.212Z,97862.41
2018-12-09T00:14:50.217Z,97856.34
2018-12-09T00:17:17.242Z,97850.09
2018-12-09T00:19:44.277Z,97863.28
2018-12-09T00:22:11.941Z,97865.25
2018-12-09T00:24:39.113Z,97858.23
2018-12-09T00:27:06.118Z,97850.32
2018-12-09T00:29:33.173Z,97845.30
2018-12-09T00:32:00.313Z,97834.79
2018-12-09T00:34:27.501Z,97834.41
2018-12-09T00:36:55.014Z,97828.08
2018-12-09T00:39:22.033Z,97824.62
2018-12-09T00:41:49.261Z,97806.72
2018-12-09T00:44:16.658Z,97806.42
2018-12-09T00:46:43.809Z,97803.50
2018-12-09T00:49:10.849Z,97801.50
2018-12-09T00:51:37.893Z,97798.53
2018-12-09T00:54:04.898Z,97807.41
2018-12-09T00:56:31.914Z,97799.73
2018-12-09T00:58:59.259Z,97808.98
2018-12-09T01:01:26.322Z,97802.07
2018-12-09T01:03:53.355Z,97810.29
2018-12-09T01:06:20.490Z,97805.84
2018-12-09T01:08:47.737Z,97804.25
2018-12-09T01:11:14.749Z,97812.89
2018-12-09T01:13:42.309Z,97819.16
2018-12-09T01:16:10.344Z,97819.89
2018-12-09T01:18:37.385Z,97810.14
2018-12-09T01:21:04.449Z,97811.09
2018-12-09T01:23:31.461Z,97819.02
2018-12-09T01:25:58.493Z,97819.48
2018-12-09T01:28:25.777Z,97823.73
2018-12-09T01:30:53.323Z,97831.64
2018-12-09T01:33:20.359Z,97843.04
2018-12-09T01:35:48.538Z,97850.42
2018-12-09T01:38:15.557Z,97847.39
2018-12-09T01:40:48.598Z,97854.66
2018-12-09T01:43:15.629Z,97856.77
2018-12-09T01:45:42.661Z,97850.94
2018-12-09T01:48:09.711Z,97859.13
2018-12-09T01:50:36.849Z,97864.14
2018-12-09T01:53:15.621Z,97865.22
2018-12-09T01:55:42.769Z,97868.38
2018-12-09T01:58:09.783Z,97869.28
2018-12-09T02:00:36.968Z,97868.88
2018-12-09T02:03:04.042Z,97871.60
2018-12-09T02:05:31.303Z,97872.48
2018-12-09T02:07:58.326Z,97871.50
2018-12-09T02:10:25.563Z,97871.60
2018-12-09T02:12:52.690Z,97866.45
2018-12-09T02:15:19.823Z,97874.36
2018-12-09T02:17:47.011Z,97880.01
2018-12-09T02:20:14.270Z,97883.38
2018-12-09T02:22:41.598Z,97892.09
2018-12-09T02:25:08.742Z,97893.81
2018-12-09T02:27:35.765Z,97900.74
2018-12-09T02:30:02.969Z,97902.76
2018-12-09T02:32:30.231Z,97900.13
2018-12-09T02:34:57.488Z,97899.80
2018-12-09T02:37:24.689Z,97903.46
2018-12-09T02:39:51.844Z,97906.88
2018-12-09T02:42:18.894Z,97913.86
2018-12-09T02:44:47.167Z,97914.16
2018-12-09T02:47:14.467Z,97914.38
2018-12-09T02:49:41.550Z,97914.52
2018-12-09T02:52:08.781Z,97903.64
2018-12-09T02:54:35.940Z,97913.38
2018-12-09T02:57:03.077Z,97913.19
2018-12-09T02:59:30.122Z,97922.56
2018-12-09T03:01:57.516Z,97922.34
2018-12-09T03:04:24.945Z,97931.55
2018-12-09T03:06:59.080Z,97925.89
2018-12-09T03:09:26.137Z,97929.06
2018-12-09T03:11:53.275Z,97926.73
2018-12-09T03:14:20.744Z,97925.25
2018-12-09T03:16:48.229Z,97933.72
2018-12-09T03:19:15.350Z,97934.97
2018-12-09T03:21:42.695Z,97932.36
2018-12-09T03:24:09.905Z,97933.31
2018-12-09T03:26:37.093Z,97943.33
2018-12-09T03:29:04.155Z,97943.02
2018-12-09T03:31:31.201Z,97935.67
2018-12-09T03:33:58.239Z,97943.41
2018-12-09T03:36:25.516Z,97944.66
2018-12-09T03:38:52.672Z,97945.89
2018-12-09T03:41:19.838Z,97948.95
2018-12-09T03:43:48.211Z,97952.11
2018-12-09T03:46:15.233Z,97952.67
2018-12-09T03:48:42.403Z,97955.44
2018-12-09T03:51:09.585Z,97963.38
2018-12-09T03:53:36.608Z,97962.05
2018-12-09T03:56:03.858Z,97967.87
2018-12-09T03:58:32.027Z,97966.45
2018-12-09T04:00:59.166Z,97976.84
2018-12-09T04:03:26.398Z,97980.00
2018-12-09T04:05:54.071Z,97980.35
2018-12-09T04:08:21.213Z,97983.16
2018-12-09T04:10:48.327Z,97987.53
2018-12-09T04:13:15.506Z,97987.19
2018-12-09T04:15:42.703Z,97990.86
2018-12-09T04:18:12.131Z,97993.80
2018-12-09T04:20:39.399Z,97998.50
2018-12-09T04:23:06.437Z,98001.06
2018-12-09T04:25:33.642Z,97996.85
2018-12-09T04:28:00.773Z,98001.06
2018-12-09T04:30:28.246Z,97995.94
2018-12-09T04:32:55.264Z,98000.44
2018-12-09T04:35:22.397Z,98002.48
2018-12-09T04:37:49.445Z,98011.58
2018-12-09T04:40:16.473Z,98008.81
2018-12-09T04:42:50.723Z,98005.61
2018-12-09T04:45:17.822Z,98013.16
2018-12-09T04:47:45.070Z,98014.76
2018-12-09T04:50:12.316Z,98013.52
2018-12-09T04:52:39.571Z,98010.67
2018-12-09T04:55:06.701Z,98014.25
2018-12-09T04:57:33.979Z,98018.73
2018-12-09T05:01:15.481Z,98020.03
2018-12-09T05:03:42.625Z,98021.31
2018-12-09T05:06:10.300Z,98020.33
2018-12-09T05:08:37.409Z,98022.36
2018-12-09T05:11:04.509Z,98031.89
2018-12-09T05:13:31.535Z,98035.09
2018-12-09T05:15:58.589Z,98037.66
2018-12-09T05:18:25.837Z,98037.26
2018-12-09T05:20:52.854Z,98036.59
2018-12-09T05:23:19.885Z,98040.23
2018-12-09T05:25:47.261Z,98050.66
2018-12-09T05:28:14.385Z,98050.91
2018-12-09T05:30:41.415Z,98048.42
2018-12-09T05:33:08.465Z,98048.88
2018-12-09T05:35:35.490Z,98052.59
2018-12-09T05:38:02.631Z,98066.28
2018-12-09T05:40:29.823Z,98063.13
2018-12-09T05:42:56.844Z,98066.53
2018-12-09T05:45:24.280Z,98077.84
2018-12-09T05:47:51.453Z,98069.63
2018-12-09T05:50:18.483Z,98077.09
2018-12-09T05:52:45.525Z,98073.44
2018-12-09T05:55:12.606Z,98082.59
2018-12-09T05:57:39.742Z,98091.47
2018-12-09T06:00:06.922Z,98091.07
2018-12-09T06:02:46.782Z,98092.80
2018-12-09T06:05:13.825Z,98095.84
2018-12-09T06:07:41.001Z,98097.14
2018-12-09T06:10:08.293Z,98094.33
2018-12-09T06:12:35.333Z,98105.09
2018-12-09T06:15:04.001Z,98107.97
2018-12-09T06:17:31.290Z,98118.93
2018-12-09T06:19:58.449Z,98110.55
2018-12-09T06:22:25.886Z,98116.93
2018-12-09T06:24:53.022Z,98114.96
2018-12-09T06:27:20.594Z,98110.78
2018-12-09T06:29:47.634Z,98113.31
2018-12-09T06:32:14.663Z,98117.90
2018-12-09T06:34:42.247Z,98123.08
2018-12-09T06:37:09.489Z,98128.50
2018-12-09T06:39:36.514Z,98129.02
2018-12-09T06:42:04.794Z,98129.42
2018-12-09T06:44:31.962Z,98122.04
2018-12-09T06:46:58.993Z,98133.32
2018-12-09T06:49:26.126Z,98131.95
2018-12-09T06:51:53.286Z,98135.73
2018-12-09T06:54:20.690Z,98143.60
2018-12-09T06:56:47.946Z,98145.81
2018-12-09T06:59:15.041Z,98150.34
2018-12-09T07:01:42.582Z,98152.12
2018-12-09T07:04:09.609Z,98157.14
2018-12-09T07:06:36.755Z,98160.08
2018-12-09T07:09:04.991Z,98166.78
2018-12-09T07:11:33.339Z,98171.41
2018-12-09T07:14:00.379Z,98176.06
2018-12-09T07:16:27.997Z,98175.38
2018-12-09T07:18:55.032Z,98181.61
2018-12-09T07:21:23.390Z,98180.48
2018-12-09T07:23:53.671Z,98192.14
2018-12-09T07:26:20.809Z,98195.55
2018-12-09T07:28:47.840Z,98191.02
2018-12-09T07:31:14.986Z,98198.21
2018-12-09T07:33:48.926Z,98201.10
2018-12-09T07:36:16.085Z,98206.48
2018-12-09T07:38:43.099Z,98207.77
2018-12-09T07:41:10.129Z,98201.10
2018-12-09T07:43:37.166Z,98215.92
2018-12-09T07:46:04.199Z,98220.98
2018-12-09T07:48:31.426Z,98216.05
2018-12-09T07:50:58.561Z,98214.67
2018-12-09T07:53:26.217Z,98225.96
2018-12-09T07:55:53.339Z,98233.48
2018-12-09T07:58:20.393Z,98245.13
2018-12-09T08:00:47.427Z,98241.52
2018-12-09T08:03:14.499Z,98239.38
2018-12-09T08:05:41.521Z,98237.46
2018-12-09T08:08:08.533Z,98243.25
2018-12-09T08:10:35.564Z,98245.73
2018-12-09T08:13:02.886Z,98255.70
2018-12-09T08:15:29.918Z,98255.30
2018-12-09T08:17:56.942Z,98259.80
2018-12-09T08:20:24.006Z,98278.12
2018-12-09T08:22:51.033Z,98275.28
2018-12-09T08:25:18.069Z,98280.70
2018-12-09T08:27:45.274Z,98292.27
2018-12-09T08:30:12.318Z,98285.59
2018-12-09T08:32:39.325Z,98282.43
2018-12-09T08:35:06.739Z,98294.76
2018-12-09T08:37:33.882Z,98297.38
2018-12-09T08:40:00.939Z,98299.23
2018-12-09T08:42:27.982Z,98299.77
2018-12-09T08:44:54.990Z,98313.04
2018-12-09T08:47:22.039Z,98305.44
2018-12-09T08:49:49.406Z,98314.86
2018-12-09T08:52:16.418Z,98315.78
2018-12-09T08:54:43.429Z,98329.26
2018-12-09T08:57:10.636Z,98327.61
2018-12-09T08:59:37.705Z,98343.39
2018-12-09T09:02:04.859Z,98352.23
2018-12-09T09:04:32.381Z,98335.62
2018-12-09T09:06:59.538Z,98330.48
2018-12-09T09:09:26.558Z,98334.77
2018-12-09T09:11:53.957Z,98347.41
2018-12-09T09:14:20.978Z,98346.64
2018-12-09T09:16:47.986Z,98355.23
2018-12-09T09:19:15.274Z,98359.77
2018-12-09T09:21:42.302Z,98364.03
2018-12-09T09:24:09.441Z,98354.97
2018-12-09T09:26:43.810Z,98355.13
2018-12-09T09:29:10.949Z,98367.31
2018-12-09T09:31:38.150Z,98359.61
2018-12-09T09:34:05.198Z,98362.81
2018-12-09T09:36:32.253Z,98368.78
2018-12-09T09:38:59.278Z,98364.78
2018-12-09T09:41:26.574Z,98365.89
2018-12-09T09:43:53.603Z,98373.00
2018-12-09T09:46:20.745Z,98379.15
2018-12-09T09:48:47.806Z,98377.37
2018-12-09T09:51:14.825Z,98390.41
2018-12-09T09:53:42.341Z,98394.23
2018-12-09T09:56:09.401Z,98403.73
2018-12-09T09:58:36.492Z,98400.05
2018-12-09T10:01:03.513Z,98404.51
2018-12-09T10:03:30.713Z,98393.03
2018-12-09T10:05:57.733Z,98405.83
2018-12-09T10:08:24.757Z,98402.02
2018-12-09T10:10:51.996Z,98404.10
2018-12-09T10:13:20.050Z,98405.90
2018-12-09T10:15:47.090Z,98401.39
2018-12-09T10:18:14.237Z,98404.57
2018-12-09T10:20:41.270Z,98411.73
2018-12-09T10:23:08.298Z,98414.36
2018-12-09T10:25:35.313Z,98415.37
2018-12-09T10:28:02.348Z,98414.78
2018-12-09T10:30:30.585Z,98425.80
2018-12-09T10:32:57.654Z,98422.33
2018-12-09T10:35:24.682Z,98416.84
2018-12-09T10:37:51.700Z,98413.06
2018-12-09T10:40:19.038Z,98424.91
2018-12-09T10:42:46.065Z,98425.78
2018-12-09T10:45:13.091Z,98419.30
2018-12-09T10:47:40.125Z,98420.61
2018-12-09T10:50:07.566Z,98421.99
2018-12-09T10:52:34.866Z,98416.33
2018-12-09T10:55:01.969Z,98425.17
2018-12-09T10:57:29.045Z,98436.38
2018-12-09T10:59:56.081Z,98435.69
2018-12-09T11:02:23.113Z,98436.81
2018-12-09T11:04:50.152Z,98438.25
2018-12-09T11:07:17.214Z,98441.02
2018-12-09T11:09:44.279Z,98448.44
2018-12-09T11:12:11.296Z,98451.91
2018-12-09T11:14:38.429Z,98454.86
2018-12-09T11:17:05.577Z,98459.45
2018-12-09T11:19:32.614Z,98471.55
2018-12-09T11:22:06.799Z,98459.89
2018-12-09T11:24:33.832Z,98457.00
2018-12-09T11:27:00.837Z,98470.19
2018-12-09T11:29:27.916Z,98467.95
2018-12-09T11:31:54.937Z,98470.35
2018-12-09T11:34:21.954Z,98465.52
2018-12-09T11:36:48.997Z,98477.39
2018-12-09T11:39:16.082Z,98469.98
2018-12-09T11:41:43.193Z,98475.36
2018-12-09T11:44:10.360Z,98473.52
2018-12-09T11:46:37.509Z,98473.84
2018-12-09T11:49:04.517Z,98471.95
2018-12-09T11:51:31.597Z,98483.42
2018-12-09T11:54:05.686Z,98487.36
2018-12-09T11:56:32.715Z,98481.58
2018-12-09T11:58:59.738Z,98489.18
2018-12-09T12:01:27.133Z,98491.30
2018-12-09T12:03:54.146Z,98492.33
2018-12-09T12:06:21.167Z,98484.02
2018-12-09T12:08:48.221Z,98481.20
2018-12-09T12:11:15.244Z,98477.60
2018-12-09T12:13:42.265Z,98484.23
2018-12-09T12:16:09.313Z,98483.22
2018-12-09T12:18:36.433Z,98482.50
2018-12-09T12:21:03.502Z,98480.53
2018-12-09T12:23:30.611Z,98486.11
2018-12-09T12:25:58.069Z,98492.28
2018-12-09T12:28:25.109Z,98502.75
2018-12-09T12:30:59.283Z,98489.53
2018-12-09T12:33:26.321Z,98489.05
2018-12-09T12:35:53.326Z,98495.02
2018-12-09T12:38:20.369Z,98503.16
2018-12-09T12:40:47.366Z,98513.66
2018-12-09T12:43:14.506Z,98514.23
2018-12-09T12:45:48.939Z,98513.34
2018-12-09T12:48:16.075Z,98533.99
2018-12-09T12:50:44.335Z,98533.33
2018-12-09T12:53:11.517Z,98525.05
2018-12-09T12:55:38.758Z,98527.36
2018-12-09T12:58:05.958Z,98536.02
2018-12-09T13:00:50.883Z,98538.52
2018-12-09T13:03:17.895Z,98554.27
2018-12-09T13:05:45.134Z,98551.97
2018-12-09T13:08:12.857Z,98567.89
2018-12-09T13:10:39.976Z,98563.81
2018-12-09T13:13:07.001Z,98562.84
2018-12-09T13:15:34.165Z,98565.20
2018-12-09T13:18:01.201Z,98565.28
2018-12-09T13:20:28.213Z,98581.75
2018-12-09T13:22:55.237Z,98579.76
2018-12-09T13:25:22.284Z,98583.26
2018-12-09T13:27:56.481Z,98592.11
2018-12-09T13:30:24.065Z,98601.30
2018-12-09T13:32:51.329Z,98599.96
2018-12-09T13:35:18.913Z,98607.30
2018-12-09T13:37:46.803Z,98613.36
2018-12-09T13:40:16.477Z,98615.77
2018-12-09T13:42:43.577Z,98618.81
2018-12-09T13:45:18.878Z,98628.37
2018-12-09T13:47:47.095Z,98625.70
2018-12-09T13:50:15.556Z,98638.08
2018-12-09T13:52:42.900Z,98642.08
2018-12-09T13:55:11.759Z,98650.77
2018-12-09T13:57:39.914Z,98649.16
2018-12-09T14:00:09.655Z,98655.02
2018-12-09T14:02:37.879Z,98661.50
2018-12-09T14:05:05.203Z,98655.88
2018-12-09T14:10:49.245Z,98665.23
2018-12-09T14:13:16.257Z,98684.82
2018-12-09T14:15:43.301Z,98690.66
2018-12-09T14:18:10.339Z,98692.81
2018-12-09T14:20:37.406Z,98713.25
2018-12-09T14:23:04.675Z,98720.05
2018-12-09T14:25:31.718Z,98714.36
2018-12-09T14:27:58.738Z,98713.98
2018-12-09T14:30:26.904Z,98709.72
2018-12-09T14:32:53.914Z,98730.72
2018-12-09T14:35:21.065Z,98732.12
2018-12-09T14:37:48.082Z,98736.16
2018-12-09T14:40:15.097Z,98742.94
2018-12-09T14:42:43.362Z,98751.05
2018-12-09T14:45:10.405Z,98752.70
2018-12-09T14:47:37.538Z,98757.14
2018-12-09T14:50:06.116Z,98762.12
2018-12-09T14:52:33.126Z,98772.69
2018-12-09T14:55:00.548Z,98773.79
2018-12-09T14:57:27.575Z,98788.83
2018-12-09T14:59:54.682Z,98782.75
2018-12-09T15:02:21.898Z,98799.55
2018-12-09T15:04:48.909Z,98796.16
2018-12-09T15:07:16.161Z,98805.81
2018-12-09T15:09:43.941Z,98802.23
2018-12-09T15:12:11.690Z,98819.06
2018-12-09T15:14:38.738Z,98817.24
2018-12-09T15:17:06.122Z,98826.00
2018-12-09T15:19:33.136Z,98837.67
2018-12-09T15:22:00.154Z,98842.27
2018-12-09T15:24:27.271Z,98842.94
2018-12-09T15:26:54.420Z,98833.50
2018-12-09T15:29:21.494Z,98843.88
2018-12-09T15:31:48.709Z,98840.11
2018-12-09T15:34:15.727Z,98847.22
2018-12-09T15:36:42.877Z,98863.78
2018-12-09T15:39:09.988Z,98862.34
2018-12-09T15:41:38.113Z,98864.58
2018-12-09T15:44:05.425Z,98869.88
2018-12-09T15:46:32.554Z,98869.06
2018-12-09T15:48:59.577Z,98870.82
2018-12-09T15:51:26.707Z,98888.42
2018-12-09T15:53:54.561Z,98879.26
2018-12-09T15:56:22.706Z,98901.74
2018-12-09T15:58:49.880Z,98892.09
2018-12-09T16:01:16.957Z,98903.06
2018-12-09T16:03:44.123Z,98898.71
2018-12-09T16:06:11.158Z,98910.58
2018-12-09T16:08:38.232Z,98913.55
2018-12-09T16:11:05.251Z,98931.53
2018-12-09T16:13:35.677Z,98941.72
2018-12-09T16:16:01.339Z,98934.87
2018-12-09T16:18:29.314Z,98938.77
2018-12-09T16:20:56.826Z,98946.25
2018-12-09T16:23:23.862Z,98959.45
2018-12-09T16:25:50.979Z,98976.75
2018-12-09T16:28:18.945Z,98962.27
2018-12-09T16:30:46.059Z,98974.41
2018-12-09T16:33:13.078Z,98975.14
2018-12-09T16:35:40.330Z,98978.99
2018-12-09T16:38:07.345Z,98980.01
2018-12-09T16:40:34.349Z,98988.72
2018-12-09T16:43:02.517Z,98989.19
2018-12-09T16:45:29.567Z,99001.89
2018-12-09T16:47:56.634Z,99010.12
2018-12-09T16:50:23.642Z,98973.78
2018-12-09T16:52:50.707Z,99009.83
2018-12-09T16:55:17.717Z,99013.33
2018-12-09T16:57:44.891Z,99021.89
2018-12-09T17:00:11.907Z,99039.65
2018-12-09T17:02:38.996Z,99029.36
2018-12-09T17:05:06.046Z,99023.69
2018-12-09T17:07:33.089Z,99053.97
2018-12-09T17:10:00.117Z,99060.55
2018-12-09T17:12:27.176Z,99072.77
2018-12-09T17:14:54.325Z,99060.31
2018-12-09T17:17:21.337Z,99078.53
2018-12-09T17:19:48.385Z,99084.83
2018-12-09T17:22:15.466Z,99092.23
2018-12-09T17:24:42.483Z,99087.47
2018-12-09T17:27:09.777Z,99100.97
2018-12-09T17:29:36.797Z,99094.40
2018-12-09T17:32:03.859Z,99103.51
2018-12-09T17:34:31.062Z,99113.73
2018-12-09T17:36:58.085Z,99111.35
2018-12-09T17:39:25.117Z,99116.89
2018-12-09T17:41:52.146Z,99128.80
2018-12-09T17:44:19.177Z,99138.30
2018-12-09T17:46:46.338Z,99148.92
2018-12-09T17:49:13.359Z,99156.68
2018-12-09T17:51:40.389Z,99166.70
2018-12-09T17:54:07.442Z,99172.97
2018-12-09T17:56:34.752Z,99178.03
2018-12-09T17:59:01.777Z,99195.84
2018-12-09T18:01:28.817Z,99187.41
2018-12-09T18:03:55.954Z,99194.67
2018-12-09T18:06:23.135Z,99200.18
2018-12-09T18:08:50.185Z,99205.16
2018-12-09T18:11:17.228Z,99210.21
2018-12-09T18:13:44.249Z,99214.05
2018-12-09T18:16:11.630Z,99214.59
2018-12-09T18:18:39.187Z,99223.87
2018-12-09T18:21:06.343Z,99234.93
2018-12-09T18:23:33.565Z,99248.44
2018-12-09T18:26:02.039Z,99247.17
2018-12-09T18:28:30.487Z,99257.94
2018-12-09T18:30:57.734Z,99259.05
2018-12-09T18:33:24.893Z,99279.97
2018-12-09T18:35:51.929Z,99266.28
2018-12-09T18:38:19.318Z,99270.44
2018-12-09T18:40:46.553Z,99271.99
2018-12-09T18:43:13.666Z,99273.70
2018-12-09T18:45:40.897Z,99284.02
2018-12-09T18:48:08.037Z,99281.02
2018-12-09T18:50:35.051Z,99293.80
2018-12-09T18:53:02.393Z,99300.18
2018-12-09T18:55:29.558Z,99304.80
2018-12-09T18:57:56.617Z,99299.14
2018-12-09T19:00:23.661Z,99313.70
2018-12-09T19:02:50.717Z,99321.17
2018-12-09T19:05:18.204Z,99323.70
2018-12-09T19:07:45.218Z,99334.52
2018-12-09T19:10:12.270Z,99332.52
2018-12-09T19:12:39.758Z,99354.04
2018-12-09T19:15:08.865Z,99345.84
2018-12-09T19:17:35.900Z,99365.95
2018-12-09T19:20:03.183Z,99349.82
2018-12-09T19:22:30.230Z,99366.86
2018-12-09T19:24:57.258Z,99363.59
2018-12-09T19:27:24.322Z,99380.16
2018-12-09T19:29:51.367Z,99375.70
2018-12-09T19:32:18.505Z,99394.40
2018-12-09T19:34:45.623Z,99400.44
2018-12-09T19:37:12.670Z,99397.95
2018-12-09T19:39:39.809Z,99404.17
2018-12-09T19:42:06.892Z,99407.83
2018-12-09T19:44:34.118Z,99405.73
2018-12-09T19:47:01.497Z,99432.34
2018-12-09T19:49:28.608Z,99425.25
2018-12-09T19:51:55.632Z,99442.67
2018-12-09T19:54:22.874Z,99442.81
2018-12-09T19:56:49.930Z,99437.89
2018-12-09T19:59:16.951Z,99446.71
2018-12-09T20:01:44.011Z,99453.09
2018-12-09T20:04:11.136Z,99462.92
2018-12-09T20:06:38.186Z,99470.40
2018-12-09T20:09:05.773Z,99472.73
2018-12-09T20:11:34.217Z,99475.10
2018-12-09T20:14:01.254Z,99485.30
2018-12-09T20:16:28.324Z,99492.79
2018-12-09T20:18:55.670Z,99505.94
2018-12-09T20:21:22.808Z,99517.55
2018-12-09T20:23:49.833Z,99523.06
2018-12-09T20:26:16.863Z,99529.18
2018-12-09T20:28:43.914Z,99524.59
2018-12-09T20:31:11.054Z,99535.52
2018-12-09T20:33:38.114Z,99543.73
2018-12-09T20:36:05.386Z,99544.78
2018-12-09T20:38:32.553Z,99541.35
2018-12-09T20:40:59.993Z,99561.75
2018-12-09T20:43:27.031Z,99563.39
2018-12-09T20:45:54.081Z,99563.52
2018-12-09T20:48:21.226Z,99575.45
2018-12-09T20:50:48.257Z,99574.33
2018-12-09T20:53:15.338Z,99579.70
2018-12-09T20:55:42.381Z,99582.16
2018-12-09T20:58:16.237Z,99588.30
2018-12-09T21:00:43.274Z,99581.88
2018-12-09T21:03:10.309Z,99592.82
2018-12-09T21:05:37.449Z,99589.08
2018-12-09T21:08:04.481Z,99589.36
2018-12-09T21:10:31.725Z,99590.33
2018-12-09T21:13:00.268Z,99599.13
2018-12-09T21:15:29.593Z,99615.43
2018-12-09T21:17:56.772Z,99609.20
2018-12-09T21:20:23.773Z,99611.78
2018-12-09T21:22:50.910Z,99612.83
2018-12-09T21:25:18.626Z,99621.16
2018-12-09T21:27:45.661Z,99626.64
2018-12-09T21:30:12.694Z,99638.31
2018-12-09T21:32:40.209Z,99643.97
2018-12-09T21:35:07.414Z,99651.64
2018-12-09T21:37:34.545Z,99656.54
2018-12-09T21:40:02.209Z,99654.52
2018-12-09T21:42:30.346Z,99661.88
2018-12-09T21:44:57.509Z,99663.12
2018-12-09T21:47:25.228Z,99667.23
2018-12-09T21:49:52.440Z,99669.53
2018-12-09T21:52:19.878Z,99678.75
2018-12-09T21:54:46.898Z,99681.91
2018-12-09T21:57:13.938Z,99691.41
2018-12-09T21:59:48.237Z,99688.90
2018-12-09T22:02:15.257Z,99696.36
2018-12-09T22:04:42.688Z,99690.80
2018-12-09T22:07:09.889Z,99694.20
2018-12-09T22:09:36.934Z,99714.49
2018-12-09T22:12:04.079Z,99708.94
2018-12-09T22:14:31.766Z,99723.78
2018-12-09T22:16:59.319Z,99728.86
2018-12-09T22:19:26.428Z,99731.80
2018-12-09T22:21:53.473Z,99721.73
2018-12-09T22:24:20.953Z,99744.68
2018-12-09T22:26:47.979Z,99746.62
2018-12-09T22:29:15.041Z,99753.02
2018-12-09T22:31:42.098Z,99756.13
2018-12-09T22:34:09.141Z,99739.32
2018-12-09T22:36:36.154Z,99766.64
2018-12-09T22:39:05.600Z,99755.06
2018-12-09T22:41:32.614Z,99769.54
2018-12-09T22:43:59.629Z,99771.84
2018-12-09T22:46:27.405Z,99776.12
2018-12-09T22:48:54.501Z,99771.64
2018-12-09T22:51:21.524Z,99779.96
2018-12-09T22:53:48.627Z,99781.80
2018-12-09T23:02:47.729Z,99791.65
2018-12-09T23:05:14.860Z,99811.66
2018-12-09T23:07:58.990Z,99809.78
2018-12-09T23:10:26.486Z,99820.98
2018-12-09T23:12:53.628Z,99825.55
2018-12-09T23:15:20.804Z,99822.02
2018-12-09T23:17:47.959Z,99834.86
2018-12-09T23:20:15.318Z,99840.68
2018-12-09T23:22:42.462Z,99845.16
2018-12-09T23:25:09.550Z,99840.97
2018-12-09T23:27:37.400Z,99865.64
2018-12-09T23:30:06.933Z,99868.48
2018-12-09T23:32:34.022Z,99855.70
2018-12-09T23:35:01.062Z,99856.50
2018-12-09T23:37:29.006Z,99867.23
2018-12-09T23:39:56.517Z,99868.73
2018-12-09T23:42:23.709Z,99863.83
2018-12-09T23:44:50.947Z,99878.09
2018-12-09T23:47:18.025Z,99877.88
2018-12-09T23:49:45.179Z,99879.81
2018-12-09T23:52:12.277Z,99873.08
2018-12-09T23:54:39.321Z,99881.06
2018-12-09T23:57:06.865Z,99876.38
2018-12-09T23:59:34.098Z,99893.50
